createdAt,value
2023-04-27T00:04:00.260Z,98624.69
2023-04-27T00:09:02.230Z,98622.78
2023-04-27T00:14:03.925Z,98620.38
2023-04-27T00:19:05.524Z,98626.03
2023-04-27T00:24:07.531Z,98627.03
2023-04-27T00:29:09.138Z,98618.69
2023-04-27T00:34:10.981Z,98625.31
2023-04-27T00:39:12.830Z,98615.25
2023-04-27T00:44:23.066Z,98615.91
2023-04-27T00:49:26.908Z,98612.75
2023-04-27T00:54:29.015Z,98611.56
2023-04-27T00:59:30.952Z,98611.56
2023-04-27T01:04:33.212Z,98623.75
2023-04-27T01:09:34.907Z,98618.88
2023-04-27T01:14:36.838Z,98618.66
2023-04-27T01:19:40.324Z,98617.66
2023-04-27T01:24:41.973Z,98619.84
2023-04-27T01:29:44.631Z,98624.06
2023-04-27T01:34:46.244Z,98632.09
2023-04-27T01:39:47.809Z,98647.75
2023-04-27T01:44:49.405Z,98644.06
2023-04-27T01:49:51.318Z,98644.13
2023-04-27T01:54:52.918Z,98652.00
2023-04-27T01:59:54.492Z,98644.56
2023-04-27T02:04:56.217Z,98653.63
2023-04-27T02:09:57.850Z,98650.47
2023-04-27T02:14:59.427Z,98658.97
2023-04-27T02:20:01.298Z,98649.22
2023-04-27T02:25:03.510Z,98650.44
2023-04-27T02:30:07.636Z,98656.25
2023-04-27T02:35:10.171Z,98664.13
2023-04-27T02:40:12.060Z,98662.38
2023-04-27T02:45:13.817Z,98667.38
2023-04-27T02:50:15.394Z,98663.09
2023-04-27T02:55:17.258Z,98651.84
2023-04-27T03:00:19.927Z,98651.66
2023-04-27T03:05:21.647Z,98661.38
2023-04-27T03:10:23.212Z,98659.59
2023-04-27T03:15:24.785Z,98662.66
2023-04-27T03:20:26.803Z,98661.13
2023-04-27T03:25:28.434Z,98668.56
2023-04-27T03:30:30.138Z,98670.84
2023-04-27T03:35:31.726Z,98666.44
2023-04-27T03:40:33.306Z,98666.97
2023-04-27T03:45:34.880Z,98681.88
2023-04-27T03:50:36.563Z,98685.03
2023-04-27T03:55:42.458Z,98687.53
2023-04-27T04:00:44.235Z,98691.19
2023-04-27T04:05:47.350Z,98695.03
2023-04-27T04:10:48.953Z,98698.38
2023-04-27T04:15:50.603Z,98695.13
2023-04-27T04:20:52.202Z,98698.59
2023-04-27T04:25:56.832Z,98702.03
2023-04-27T04:30:59.788Z,98704.88
2023-04-27T04:36:05.318Z,98702.19
2023-04-27T04:41:07.362Z,98709.91
2023-04-27T04:46:09.043Z,98701.34
2023-04-27T04:51:10.761Z,98703.44
2023-04-27T04:56:13.747Z,98699.22
2023-04-27T05:01:15.507Z,98702.41
2023-04-27T05:06:17.108Z,98701.44
2023-04-27T05:11:18.767Z,98706.00
2023-04-27T05:16:20.482Z,98717.47
2023-04-27T05:21:22.307Z,98718.34
2023-04-27T05:26:23.915Z,98721.00
2023-04-27T05:31:25.549Z,98720.72
2023-04-27T05:36:28.661Z,98729.94
2023-04-27T05:41:30.895Z,98733.22
2023-04-27T05:46:33.379Z,98744.75
2023-04-27T05:51:35.050Z,98741.31
2023-04-27T05:56:37.934Z,98740.44
2023-04-27T06:01:39.619Z,98739.03
2023-04-27T06:06:41.213Z,98745.50
2023-04-27T06:11:44.046Z,98752.84
2023-04-27T06:16:45.648Z,98747.28
2023-04-27T06:21:47.302Z,98749.78
2023-04-27T06:26:52.017Z,98749.91
2023-04-27T06:31:53.629Z,98756.44
2023-04-27T06:36:55.277Z,98762.06
2023-04-27T06:41:56.944Z,98761.53
2023-04-27T06:46:58.527Z,98754.06
2023-04-27T06:52:02.912Z,98760.66
2023-04-27T06:57:04.699Z,98762.09
2023-04-27T07:02:07.736Z,98759.47
2023-04-27T07:07:09.366Z,98762.50
2023-04-27T07:12:11.367Z,98759.22
2023-04-27T07:17:13.148Z,98761.63
2023-04-27T07:22:16.160Z,98773.09
2023-04-27T07:27:17.879Z,98769.25
2023-04-27T07:32:19.656Z,98769.53
2023-04-27T07:37:22.402Z,98771.91
2023-04-27T07:42:25.214Z,98755.84
2023-04-27T07:47:27.273Z,98762.44
2023-04-27T07:52:28.836Z,98748.47
2023-04-27T07:57:30.680Z,98752.44
2023-04-27T08:02:35.012Z,98753.28
2023-04-27T08:07:42.558Z,98752.16
2023-04-27T08:12:46.320Z,98744.44
2023-04-27T08:17:48.395Z,98741.41
2023-04-27T08:22:51.276Z,98748.63
2023-04-27T08:27:52.874Z,98745.19
2023-04-27T08:32:54.923Z,98753.94
2023-04-27T08:37:56.904Z,98755.97
2023-04-27T08:43:01.174Z,98755.00
2023-04-27T08:48:02.936Z,98756.03
2023-04-27T08:53:04.583Z,98750.75
2023-04-27T08:58:06.314Z,98746.69
2023-04-27T09:03:28.783Z,98738.81
2023-04-27T09:08:48.212Z,98728.34
2023-04-27T09:13:49.813Z,98733.81
2023-04-27T09:18:51.730Z,98723.50
2023-04-27T09:23:54.518Z,98721.63
2023-04-27T09:28:59.571Z,98716.69
2023-04-27T09:34:01.979Z,98713.56
2023-04-27T09:39:07.061Z,98712.78
2023-04-27T09:44:08.791Z,98696.28
2023-04-27T09:49:12.352Z,98699.72
2023-04-27T09:54:16.043Z,98691.31
2023-04-27T09:59:25.398Z,98670.91
2023-04-27T10:04:32.900Z,98677.84
2023-04-27T10:09:49.344Z,98673.22
2023-04-27T10:14:56.713Z,98678.59
2023-04-27T10:20:09.827Z,98669.63
2023-04-27T10:25:23.394Z,98663.03
2023-04-27T10:30:27.527Z,98654.19
2023-04-27T10:35:37.667Z,98657.28
2023-04-27T10:40:39.493Z,98652.69
2023-04-27T10:45:41.965Z,98644.19
2023-04-27T10:50:47.710Z,98642.22
2023-04-27T10:55:55.657Z,98636.34
2023-04-27T11:00:57.243Z,98638.84
2023-04-27T11:06:04.723Z,98628.91
2023-04-27T11:11:06.821Z,98633.69
2023-04-27T11:16:08.495Z,98625.03
2023-04-27T11:21:12.798Z,98619.66
2023-04-27T11:26:20.285Z,98617.31
2023-04-27T11:31:22.180Z,98618.47
2023-04-27T11:36:24.621Z,98608.13
2023-04-27T11:41:36.820Z,98610.75
2023-04-27T11:46:39.188Z,98616.25
2023-04-27T11:51:40.905Z,98611.53
2023-04-27T11:56:43.048Z,98598.88
2023-04-27T12:01:44.868Z,98595.00
2023-04-27T12:06:46.474Z,98600.69
2023-04-27T12:11:48.188Z,98598.03
2023-04-27T12:16:49.902Z,98605.81
2023-04-27T12:21:52.956Z,98604.00
2023-04-27T12:26:54.552Z,98603.94
2023-04-27T12:31:56.488Z,98597.25
2023-04-27T12:36:58.141Z,98599.00
2023-04-27T12:41:59.800Z,98603.97
2023-04-27T12:47:01.434Z,98599.34
2023-04-27T12:52:03.109Z,98595.00
2023-04-27T12:57:06.659Z,98601.06
2023-04-27T13:02:09.849Z,98600.25
2023-04-27T13:07:12.150Z,98594.63
2023-04-27T13:12:14.197Z,98584.31
2023-04-27T13:17:15.836Z,98595.59
2023-04-27T13:22:17.457Z,98593.06
2023-04-27T13:27:20.412Z,98595.44
2023-04-27T13:32:22.753Z,98595.19
2023-04-27T13:37:24.569Z,98600.75
2023-04-27T13:42:29.551Z,98598.72
2023-04-27T13:47:37.328Z,98590.03
2023-04-27T13:52:39.784Z,98585.59
2023-04-27T13:57:41.496Z,98583.78
2023-04-27T14:02:43.153Z,98580.13
2023-04-27T14:07:44.933Z,98589.28
2023-04-27T14:12:46.673Z,98583.69
2023-04-27T14:17:48.320Z,98585.25
2023-04-27T14:22:50.169Z,98591.19
2023-04-27T14:27:51.830Z,98585.97
2023-04-27T14:32:54.029Z,98578.50
2023-04-27T14:37:57.265Z,98570.81
2023-04-27T14:42:59.503Z,98569.25
2023-04-27T14:48:01.641Z,98575.16
2023-04-27T14:53:03.275Z,98576.88
2023-04-27T14:58:04.959Z,98574.44
2023-04-27T15:03:06.865Z,98582.44
2023-04-27T15:08:08.861Z,98580.22
2023-04-27T15:13:10.586Z,98572.19
2023-04-27T15:18:12.533Z,98573.56
2023-04-27T15:23:14.358Z,98576.63
2023-04-27T15:28:16.886Z,98581.00
2023-04-27T15:33:19.057Z,98588.53
2023-04-27T15:38:21.107Z,98574.69
2023-04-27T15:43:22.787Z,98575.84
2023-04-27T15:48:25.433Z,98573.41
2023-04-27T15:53:27.135Z,98573.63
2023-04-27T15:58:28.749Z,98574.03
2023-04-27T16:03:30.712Z,98569.50
2023-04-27T16:08:32.639Z,98568.34
2023-04-27T16:13:34.258Z,98566.66
2023-04-27T16:18:36.090Z,98555.66
2023-04-27T16:23:37.783Z,98571.53
2023-04-27T16:28:39.394Z,98569.31
2023-04-27T16:33:41.325Z,98571.41
2023-04-27T16:38:42.950Z,98574.66
2023-04-27T16:43:44.554Z,98570.66
2023-04-27T16:48:46.486Z,98566.50
2023-04-27T16:53:48.226Z,98573.72
2023-04-27T16:58:49.824Z,98583.41
2023-04-27T17:03:51.634Z,98577.31
2023-04-27T17:08:53.822Z,98580.97
2023-04-27T17:13:55.584Z,98578.03
2023-04-27T17:18:57.322Z,98571.81
2023-04-27T17:23:59.018Z,98586.63
2023-04-27T17:29:01.798Z,98593.41
2023-04-27T17:34:03.627Z,98603.78
2023-04-27T17:39:05.334Z,98608.28
2023-04-27T17:44:06.987Z,98605.66
2023-04-27T17:49:08.597Z,98606.88
2023-04-27T17:54:11.747Z,98607.66
2023-04-27T17:59:13.651Z,98614.91
2023-04-27T18:04:15.565Z,98617.31
2023-04-27T18:09:17.680Z,98624.06
2023-04-27T18:14:19.600Z,98622.56
2023-04-27T18:19:21.514Z,98633.53
2023-04-27T18:24:23.156Z,98635.88
2023-04-27T18:29:24.768Z,98642.56
2023-04-27T18:34:27.226Z,98648.75
2023-04-27T18:39:29.306Z,98652.47
2023-04-27T18:44:31.383Z,98661.97
2023-04-27T18:49:33.474Z,98665.81
2023-04-27T18:54:35.468Z,98665.38
2023-04-27T18:59:40.510Z,98679.03
2023-04-27T19:04:45.571Z,98683.00
2023-04-27T19:09:57.313Z,98688.28
2023-04-27T19:14:59.406Z,98686.59
2023-04-27T19:20:01.317Z,98696.06
2023-04-27T19:25:06.876Z,98700.88
2023-04-27T19:30:09.219Z,98703.31
2023-04-27T19:35:12.558Z,98703.41
2023-04-27T19:40:15.299Z,98699.47
2023-04-27T19:45:19.133Z,98713.41
2023-04-27T19:50:21.421Z,98724.28
2023-04-27T19:55:23.560Z,98729.19
2023-04-27T20:00:25.595Z,98723.97
2023-04-27T20:05:27.810Z,98721.25
2023-04-27T20:10:29.656Z,98720.97
2023-04-27T20:15:31.309Z,98716.97
2023-04-27T20:20:32.897Z,98724.81
2023-04-27T20:25:34.491Z,98740.06
2023-04-27T20:30:36.103Z,98743.38
2023-04-27T20:35:37.768Z,98746.75
2023-04-27T20:40:40.046Z,98760.81
2023-04-27T20:45:42.464Z,98770.84
2023-04-27T20:50:44.031Z,98770.38
2023-04-27T20:55:46.348Z,98766.03
2023-04-27T21:00:47.964Z,98751.41
2023-04-27T21:05:49.643Z,98766.06
2023-04-27T21:10:51.436Z,98775.22
2023-04-27T21:15:53.034Z,98780.41
2023-04-27T21:20:54.614Z,98785.69
2023-04-27T21:25:56.322Z,98773.53
2023-04-27T21:30:57.919Z,98775.16
2023-04-27T21:35:59.689Z,98777.72
2023-04-27T21:41:01.302Z,98779.53
2023-04-27T21:46:02.884Z,98787.22
2023-04-27T21:51:04.544Z,98784.66
2023-04-27T21:56:06.644Z,98795.22
2023-04-27T22:01:08.195Z,98808.16
2023-04-27T22:06:09.945Z,98807.66
2023-04-27T22:11:11.580Z,98801.97
2023-04-27T22:16:13.886Z,98805.09
2023-04-27T22:21:16.100Z,98795.22
2023-04-27T22:26:17.689Z,98806.50
2023-04-27T22:31:19.329Z,98804.09
2023-04-27T22:36:21.132Z,98785.63
2023-04-27T22:41:22.703Z,98785.84
2023-04-27T22:46:24.457Z,98801.34
2023-04-27T22:51:27.563Z,98797.88
2023-04-27T22:56:29.141Z,98791.44
2023-04-27T23:01:30.852Z,98807.09
2023-04-27T23:06:32.519Z,98806.16
2023-04-27T23:11:34.258Z,98804.66
2023-04-27T23:16:35.902Z,98793.97
2023-04-27T23:21:37.463Z,98794.59
2023-04-27T23:26:39.058Z,98791.69
2023-04-27T23:31:41.313Z,98779.28
2023-04-27T23:36:43.159Z,98775.09
2023-04-27T23:41:44.753Z,98772.78
2023-04-27T23:46:46.326Z,98777.91
2023-04-27T23:51:49.989Z,98778.25
2023-04-27T23:56:51.862Z,98780.22
